Time;durP1;ratioP1;P1;durP2;ratioP2;P2;SDS_P1;SDS_P2;PMS_P1;PMS_P2;Temp;Humidity;BMP_temperature;BMP_pressure;BME280_temperature;BME280_humidity;BME280_pressure;Samples;Min_cycle;Max_cycle;Signal;HPM_P1;HPM_P2
2022/03/02 04:01:45;;;;;;;1.58;1.40;;;15.30;47.80;;;;;;5276337;23;46620;-64
2022/03/02 04:04:11;;;;;;;1.42;1.33;;;15.20;47.80;;;;;;4922659;28;45544;-65
2022/03/02 04:06:37;;;;;;;1.60;1.50;;;15.20;47.80;;;;;;4901037;28;45252;-63
2022/03/02 04:09:03;;;;;;;2.33;1.48;;;15.20;47.80;;;;;;4926034;28;44932;-65
2022/03/02 04:11:30;;;;;;;2.13;1.42;;;15.20;47.90;;;;;;4904254;28;45402;-64
2022/03/02 04:13:55;;;;;;;2.05;1.75;;;15.20;47.80;;;;;;4923017;28;46029;-67
2022/03/02 04:16:21;;;;;;;1.63;1.27;;;15.20;47.80;;;;;;4922765;28;45381;-65
2022/03/02 04:18:47;;;;;;;2.10;1.55;;;15.20;47.80;;;;;;4935941;28;45217;-65
2022/03/02 04:21:12;;;;;;;2.15;1.70;;;15.20;47.80;;;;;;4901166;28;44819;-66
2022/03/02 04:23:38;;;;;;;2.13;1.50;;;15.20;47.70;;;;;;4933692;28;47287;-66
2022/03/02 04:26:03;;;;;;;1.40;1.20;;;15.20;47.80;;;;;;4919319;28;45418;-65
2022/03/02 04:28:29;;;;;;;3.45;1.95;;;15.20;48.40;;;;;;4908150;28;45205;-65
2022/03/02 04:30:55;;;;;;;1.60;1.25;;;15.10;47.80;;;;;;4935263;28;45605;-67
2022/03/02 04:33:21;;;;;;;2.15;1.58;;;15.10;47.80;;;;;;4937452;28;46442;-64
2022/03/02 04:35:46;;;;;;;2.00;1.60;;;15.10;47.80;;;;;;4938551;28;45211;-65
2022/03/02 04:38:12;;;;;;;1.45;1.35;;;15.10;47.90;;;;;;4919174;28;45294;-67
2022/03/02 04:40:38;;;;;;;2.60;1.40;;;15.10;47.90;;;;;;4933020;28;45310;-65
2022/03/02 04:43:03;;;;;;;2.10;1.65;;;15.10;47.90;;;;;;4937240;28;45224;-65
2022/03/02 04:45:29;;;;;;;1.73;1.30;;;15.10;47.90;;;;;;4922920;28;45196;-66
2022/03/02 04:47:55;;;;;;;1.55;1.45;;;15.10;48.50;;;;;;4938869;28;45199;-66
2022/03/02 04:50:20;;;;;;;1.20;1.10;;;15.10;47.90;;;;;;4935766;28;45871;-66
2022/03/02 04:52:47;;;;;;;1.85;1.50;;;15.10;47.80;;;;;;4936426;28;45845;-66
2022/03/02 04:55:12;;;;;;;1.60;1.50;;;15.10;47.80;;;;;;4904286;28;45620;-65
2022/03/02 04:57:49;;;;;;;1.73;1.38;;;15.10;47.80;;;;;;4921893;28;45347;-66
2022/03/02 05:00:25;;;;;;;2.13;1.52;;;15.10;47.80;;;;;;4931807;28;45377;-66
2022/03/02 05:02:51;;;;;;;2.50;1.60;;;15.00;47.80;;;;;;4904564;28;45591;-66
2022/03/02 05:05:19;;;;;;;1.42;1.30;;;15.00;48.00;;;;;;4932948;28;45183;-65
2022/03/02 05:07:45;;;;;;;1.85;1.42;;;15.00;47.90;;;;;;4904299;28;45543;-65
2022/03/02 05:10:12;;;;;;;4.15;1.55;;;15.00;47.90;;;;;;4936457;28;45266;-66
2022/03/02 05:12:37;;;;;;;1.65;1.55;;;15.00;48.00;;;;;;4952712;28;45332;-65
2022/03/02 05:15:04;;;;;;;1.65;1.50;;;15.00;47.90;;;;;;4939930;28;45367;-66
2022/03/02 05:17:31;;;;;;;3.15;1.70;;;15.00;47.80;;;;;;4923691;28;44754;-65
2022/03/02 05:19:56;;;;;;;2.25;1.80;;;15.00;47.80;;;;;;4923206;28;44711;-66
2022/03/02 05:22:22;;;;;;;1.88;1.38;;;15.00;47.80;;;;;;4926233;28;46700;-65
2022/03/02 05:24:48;;;;;;;1.80;1.40;;;15.00;47.90;;;;;;4939669;28;45278;-65
2022/03/02 05:27:13;;;;;;;2.08;1.50;;;15.00;48.50;;;;;;4942205;28;46086;-65
2022/03/02 05:29:39;;;;;;;2.40;1.73;;;15.00;47.90;;;;;;4941036;28;45140;-64
2022/03/02 05:32:05;;;;;;;2.50;1.75;;;14.90;47.90;;;;;;4937452;28;45286;-66
2022/03/02 05:34:30;;;;;;;2.08;1.45;;;14.90;47.90;;;;;;4907767;28;45385;-65
2022/03/02 05:36:56;;;;;;;2.38;1.30;;;14.90;48.00;;;;;;4926548;28;45393;-63
2022/03/02 05:39:23;;;;;;;1.45;1.25;;;14.90;48.10;;;;;;4924400;28;45088;-65
2022/03/02 05:41:49;;;;;;;1.75;1.40;;;14.80;48.00;;;;;;4920082;28;45278;-66
2022/03/02 05:44:15;;;;;;;1.88;1.67;;;14.90;48.10;;;;;;4924674;28;45655;-66
2022/03/02 05:46:40;;;;;;;1.90;1.42;;;14.80;47.90;;;;;;4938697;28;45187;-66
2022/03/02 05:49:08;;;;;;;2.25;1.30;;;14.80;48.00;;;;;;4940935;28;45298;-65
2022/03/02 05:51:33;;;;;;;2.40;1.65;;;14.80;48.00;;;;;;4925370;28;45279;-65
2022/03/02 05:53:59;;;;;;;2.38;1.73;;;14.80;48.00;;;;;;4940910;28;45237;-67
2022/03/02 05:56:25;;;;;;;1.55;1.27;;;14.80;47.90;;;;;;4941403;28;45152;-65
2022/03/02 05:58:51;;;;;;;1.80;1.50;;;14.80;47.90;;;;;;4938247;28;45188;-65
2022/03/02 06:01:17;;;;;;;1.70;1.58;;;14.80;47.90;;;;;;4921695;28;45589;-65
2022/03/02 06:03:44;;;;;;;2.22;1.65;;;14.80;47.90;;;;;;4940458;28;45351;-65
2022/03/02 06:06:10;;;;;;;2.47;1.67;;;14.80;48.00;;;;;;4921738;28;45240;-66
2022/03/02 06:08:35;;;;;;;1.35;1.20;;;14.80;47.90;;;;;;4925252;28;45432;-65
2022/03/02 06:11:01;;;;;;;2.63;1.80;;;14.80;47.90;;;;;;4939824;28;45896;-65
2022/03/02 06:13:27;;;;;;;2.10;1.50;;;14.80;48.00;;;;;;4924915;28;45214;-66
2022/03/02 06:15:53;;;;;;;2.45;1.70;;;14.80;48.00;;;;;;4942661;28;45284;-66
2022/03/02 06:18:18;;;;;;;2.58;1.70;;;14.80;48.00;;;;;;4940876;28;44959;-66
2022/03/02 06:20:44;;;;;;;1.98;1.45;;;14.70;48.00;;;;;;4921968;28;46360;-66
2022/03/02 06:23:10;;;;;;;2.47;1.77;;;14.70;48.00;;;;;;4921721;28;45206;-65
2022/03/02 06:25:36;;;;;;;2.95;1.58;;;14.70;48.00;;;;;;4905643;28;44755;-66
2022/03/02 06:28:02;;;;;;;2.00;1.60;;;14.70;47.90;;;;;;4939809;28;45310;-66
2022/03/02 06:30:27;;;;;;;2.88;1.90;;;14.80;47.90;;;;;;4938212;28;44922;-67
2022/03/02 06:32:53;;;;;;;1.60;1.30;;;14.80;47.90;;;;;;4940171;28;44654;-66
2022/03/02 06:35:18;;;;;;;2.55;1.60;;;14.70;47.90;;;;;;4939668;28;44691;-65
2022/03/02 06:37:45;;;;;;;2.25;1.58;;;14.70;47.90;;;;;;4893635;28;45690;-66
2022/03/02 06:40:11;;;;;;;1.65;1.38;;;14.70;47.90;;;;;;4941798;28;46275;-67
2022/03/02 06:43:01;;;;;;;2.55;1.70;;;14.70;47.90;;;;;;4951502;28;45387;-65
2022/03/02 06:45:48;;;;;;;2.20;1.70;;;14.70;47.90;;;;;;4927346;28;44994;-65
2022/03/02 06:48:19;;;;;;;2.25;1.60;;;14.70;47.90;;;;;;4933808;28;45184;-66
2022/03/02 06:50:45;;;;;;;2.03;1.45;;;14.70;48.00;;;;;;4918612;28;45232;-65
2022/03/02 06:53:14;;;;;;;1.83;1.50;;;14.60;48.00;;;;;;4940653;28;44660;-66
2022/03/02 06:55:41;;;;;;;2.47;1.70;;;14.70;48.00;;;;;;4938716;28;44839;-65
2022/03/02 06:58:10;;;;;;;1.30;1.20;;;14.60;47.90;;;;;;4924132;28;45253;-68
2022/03/02 07:00:37;;;;;;;2.30;1.75;;;14.60;48.00;;;;;;4907130;28;45141;-67
2022/03/02 07:03:04;;;;;;;2.13;1.80;;;14.70;47.90;;;;;;4924091;28;44687;-66
2022/03/02 07:05:30;;;;;;;1.83;1.38;;;14.80;47.60;;;;;;4921549;28;45376;-66
2022/03/02 07:07:56;;;;;;;2.28;1.77;;;14.90;47.40;;;;;;4922938;28;45182;-66
2022/03/02 07:10:22;;;;;;;1.85;1.55;;;15.00;47.30;;;;;;4925826;28;45300;-65
2022/03/02 07:12:47;;;;;;;2.85;1.65;;;15.10;47.20;;;;;;4933670;28;45515;-65
2022/03/02 07:15:13;;;;;;;2.40;1.80;;;15.20;47.10;;;;;;4942643;28;45366;-66
2022/03/02 07:17:39;;;;;;;1.63;1.52;;;15.30;47.00;;;;;;4924048;28;45253;-66
2022/03/02 07:20:07;;;;;;;1.95;1.40;;;15.40;46.80;;;;;;4922083;28;45671;-66
2022/03/02 07:22:35;;;;;;;2.47;1.52;;;15.50;46.70;;;;;;4918866;28;45110;-65
2022/03/02 07:25:07;;;;;;;1.45;1.20;;;15.60;46.70;;;;;;4942747;28;45415;-65
2022/03/02 07:27:34;;;;;;;1.73;1.48;;;15.70;46.50;;;;;;4875490;28;45132;-64
2022/03/02 07:30:00;;;;;;;1.88;1.50;;;15.80;46.30;;;;;;4938992;28;45459;-63
2022/03/02 07:32:30;;;;;;;1.70;1.30;;;16.00;46.30;;;;;;4896700;28;45281;-64
2022/03/02 07:34:58;;;;;;;2.53;1.25;;;16.00;46.10;;;;;;4927199;28;45366;-64
2022/03/02 07:37:24;;;;;;;1.40;1.15;;;16.10;46.10;;;;;;4921728;28;45265;-64
2022/03/02 07:39:49;;;;;;;1.92;1.17;;;16.30;46.00;;;;;;4938950;28;45223;-64
2022/03/02 07:42:15;;;;;;;1.70;1.40;;;16.40;45.90;;;;;;4922069;28;44973;-64
2022/03/02 07:44:41;;;;;;;3.00;1.20;;;16.50;45.80;;;;;;4927174;28;45188;-64
2022/03/02 07:47:08;;;;;;;1.70;1.30;;;16.60;45.70;;;;;;4924427;28;45534;-64
2022/03/02 07:49:34;;;;;;;1.45;1.10;;;16.70;45.70;;;;;;4916357;28;46778;-64
2022/03/02 07:52:00;;;;;;;1.70;1.50;;;16.80;45.60;;;;;;4922278;28;45559;-64
2022/03/02 07:54:28;;;;;;;1.27;1.17;;;16.90;45.50;;;;;;4921103;28;45673;-65
2022/03/02 07:56:53;;;;;;;1.50;1.02;;;17.00;45.40;;;;;;4934820;28;45206;-65
2022/03/02 07:59:19;;;;;;;1.30;1.20;;;17.10;45.30;;;;;;4937662;28;46264;-65
2022/03/02 08:01:44;;;;;;;1.67;1.20;;;17.20;45.20;;;;;;4906634;28;45249;-65
2022/03/02 08:04:10;;;;;;;1.23;1.13;;;17.30;45.10;;;;;;4907549;28;45362;-68
2022/03/02 08:06:37;;;;;;;3.20;1.00;;;17.40;45.10;;;;;;4906776;28;45182;-65
2022/03/02 08:09:04;;;;;;;3.50;1.20;;;17.50;45.00;;;;;;4939342;28;46226;-66
2022/03/02 08:11:33;;;;;;;1.98;1.25;;;17.60;45.00;;;;;;4921914;28;45230;-67
2022/03/02 08:14:00;;;;;;;1.80;1.30;;;17.70;44.90;;;;;;4939201;28;44636;-66
2022/03/02 08:16:29;;;;;;;1.40;1.02;;;17.80;44.80;;;;;;4906369;28;45474;-67
2022/03/02 08:18:55;;;;;;;1.20;1.10;;;17.90;44.80;;;;;;4938784;28;46738;-66
2022/03/02 08:21:21;;;;;;;2.45;1.05;;;18.00;44.70;;;;;;4938614;28;45129;-66
2022/03/02 08:23:49;;;;;;;1.42;1.05;;;18.10;44.70;;;;;;4921660;28;45193;-66
2022/03/02 08:26:14;;;;;;;1.70;0.90;;;18.20;44.60;;;;;;4908929;28;45315;-66
2022/03/02 08:28:40;;;;;;;1.38;0.95;;;18.30;44.50;;;;;;4915276;28;46983;-65
2022/03/02 08:31:05;;;;;;;1.00;0.85;;;18.40;44.50;;;;;;4938363;28;44681;-66
2022/03/02 08:33:34;;;;;;;1.13;1.00;;;18.50;44.40;;;;;;4924152;28;44895;-66
2022/03/02 08:36:00;;;;;;;1.20;1.10;;;18.60;44.30;;;;;;4938442;28;45141;-65
2022/03/02 08:38:25;;;;;;;1.98;1.02;;;18.70;44.30;;;;;;4922529;28;46192;-66
2022/03/02 08:40:51;;;;;;;1.25;1.00;;;18.80;44.20;;;;;;4939512;28;45230;-67
2022/03/02 08:43:17;;;;;;;0.85;0.80;;;18.90;44.20;;;;;;4922490;28;45302;-66
2022/03/02 08:45:46;;;;;;;1.20;1.10;;;19.00;44.20;;;;;;4924313;28;45329;-67
2022/03/02 08:48:16;;;;;;;1.10;0.80;;;19.00;44.00;;;;;;4924759;28;45375;-67
2022/03/02 08:50:41;;;;;;;1.40;1.00;;;19.10;44.00;;;;;;4923965;28;44731;-67
2022/03/02 08:53:07;;;;;;;2.55;1.02;;;19.20;44.00;;;;;;4932181;28;45229;-67
2022/03/02 08:55:32;;;;;;;1.17;1.08;;;19.30;43.90;;;;;;4931764;28;45372;-66
2022/03/02 08:57:59;;;;;;;1.35;0.98;;;19.40;43.80;;;;;;4935831;28;45503;-66
2022/03/02 09:00:25;;;;;;;1.10;0.90;;;19.50;43.80;;;;;;4924573;28;45239;-65
2022/03/02 09:02:52;;;;;;;1.10;1.00;;;19.50;43.70;;;;;;4927729;28;45297;-66
2022/03/02 09:05:18;;;;;;;1.42;1.00;;;19.60;43.70;;;;;;4928111;28;44750;-66
2022/03/02 09:07:43;;;;;;;1.33;1.10;;;19.70;43.60;;;;;;4928087;28;45330;-66
2022/03/02 09:10:09;;;;;;;1.10;0.98;;;19.80;44.20;;;;;;4942245;28;44955;-66
2022/03/02 09:12:35;;;;;;;2.50;1.00;;;19.90;43.60;;;;;;4945163;28;45230;-66
2022/03/02 09:15:01;;;;;;;1.35;1.10;;;20.00;43.50;;;;;;4916718;28;45193;-65
2022/03/02 09:17:28;;;;;;;1.67;1.15;;;20.10;43.40;;;;;;4927004;28;45603;-66
2022/03/02 09:19:54;;;;;;;1.00;0.90;;;20.10;43.30;;;;;;4938784;28;45322;-67
2022/03/02 09:22:21;;;;;;;0.80;0.80;;;20.20;43.30;;;;;;4944348;28;45155;-66
2022/03/02 09:24:46;;;;;;;1.17;1.08;;;20.30;43.20;;;;;;4928372;28;45440;-66
2022/03/02 09:27:12;;;;;;;1.08;0.93;;;20.40;43.20;;;;;;4938605;28;44933;-66
2022/03/02 09:29:42;;;;;;;1.08;0.77;;;20.50;43.20;;;;;;4892555;28;45343;-67
2022/03/02 09:32:08;;;;;;;0.77;0.77;;;20.50;43.10;;;;;;4941533;28;45251;-66
2022/03/02 09:34:34;;;;;;;1.00;0.82;;;20.60;43.00;;;;;;4915351;28;45275;-66
2022/03/02 09:36:59;;;;;;;0.77;0.73;;;20.70;43.00;;;;;;4933538;28;45263;-66
2022/03/02 09:39:25;;;;;;;0.82;0.77;;;20.80;42.90;;;;;;4913848;28;45615;-67
2022/03/02 09:42:00;;;;;;;0.90;0.70;;;20.90;42.90;;;;;;4940650;28;44724;-64
2022/03/02 09:44:31;;;;;;;0.65;0.65;;;20.90;42.70;;;;;;4927187;28;44638;-66
2022/03/02 09:46:57;;;;;;;0.85;0.80;;;21.00;42.70;;;;;;4943756;28;47416;-66
2022/03/02 09:49:24;;;;;;;1.58;0.90;;;21.10;42.80;;;;;;4913977;28;45259;-66
2022/03/02 09:52:02;;;;;;;1.58;0.82;;;21.10;42.70;;;;;;4938598;28;45276;-66
2022/03/02 09:54:28;;;;;;;1.17;0.88;;;21.20;42.60;;;;;;4939260;28;45500;-67
2022/03/02 09:56:53;;;;;;;1.30;1.00;;;21.30;42.60;;;;;;4937387;28;46068;-67
2022/03/02 09:59:20;;;;;;;0.95;0.77;;;21.40;42.50;;;;;;4927634;28;45260;-67
2022/03/02 10:01:48;;;;;;;0.82;0.80;;;21.50;42.50;;;;;;4906764;28;45415;-68
2022/03/02 10:04:22;;;;;;;0.70;0.68;;;21.50;42.40;;;;;;4909988;28;46498;-68
2022/03/02 10:06:49;;;;;;;1.13;0.77;;;21.60;42.30;;;;;;4934296;28;45337;-67
2022/03/02 10:09:15;;;;;;;0.70;0.70;;;21.70;42.30;;;;;;4940071;28;45262;-66
2022/03/02 10:11:42;;;;;;;0.93;0.75;;;21.70;42.20;;;;;;4938580;28;45386;-67
2022/03/02 10:14:07;;;;;;;1.00;0.80;;;21.80;42.20;;;;;;4909785;28;45313;-67
2022/03/02 10:16:33;;;;;;;0.88;0.73;;;21.90;42.20;;;;;;4924644;28;47053;-66
2022/03/02 10:19:00;;;;;;;0.80;0.80;;;21.90;42.10;;;;;;4938515;28;45158;-66
2022/03/02 10:21:31;;;;;;;0.80;0.80;;;22.00;42.10;;;;;;4903904;28;44690;-67
2022/03/02 10:24:01;;;;;;;1.10;0.90;;;22.10;42.00;;;;;;4921456;28;45427;-67
2022/03/02 10:26:31;;;;;;;0.85;0.85;;;22.10;42.00;;;;;;4935456;28;46685;-67
2022/03/02 10:29:19;;;;;;;0.90;0.57;;;22.20;42.00;;;;;;4932973;28;44646;-66
2022/03/02 10:32:08;;;;;;;0.85;0.75;;;22.20;41.80;;;;;;4928358;28;45195;-66
2022/03/02 10:35:00;;;;;;;1.48;0.70;;;22.40;41.70;;;;;;4945928;28;44746;-67
2022/03/02 10:37:35;;;;;;;1.02;0.75;;;22.40;41.50;;;;;;4918244;28;47336;-67
2022/03/02 10:40:16;;;;;;;1.00;0.90;;;22.50;41.70;;;;;;4938537;28;45165;-66
2022/03/02 10:42:57;;;;;;;0.70;0.70;;;22.60;41.50;;;;;;4938235;28;45558;-66
2022/03/02 10:45:26;;;;;;;0.95;0.82;;;22.70;41.60;;;;;;4905803;28;45617;-67
2022/03/02 10:47:55;;;;;;;0.93;0.77;;;22.70;41.50;;;;;;4922853;28;45603;-66
2022/03/02 10:50:22;;;;;;;2.13;0.90;;;22.80;41.50;;;;;;4935095;28;45132;-66
2022/03/02 10:52:48;;;;;;;1.40;0.60;;;22.80;42.10;;;;;;4938381;28;45409;-66
2022/03/02 10:55:14;;;;;;;0.88;0.75;;;22.90;41.50;;;;;;4898063;28;45175;-64
2022/03/02 10:57:39;;;;;;;1.23;0.70;;;23.00;41.40;;;;;;4934841;28;46288;-65
2022/03/02 11:00:13;;;;;;;1.00;0.88;;;23.00;41.40;;;;;;4922721;28;45443;-64
2022/03/02 11:02:43;;;;;;;0.65;0.60;;;23.10;41.30;;;;;;4927063;28;45208;-65
2022/03/02 11:05:10;;;;;;;0.80;0.57;;;23.20;41.20;;;;;;4921673;28;44733;-65
2022/03/02 11:07:36;;;;;;;0.70;0.60;;;23.20;41.30;;;;;;4921360;28;46212;-64
2022/03/02 11:10:03;;;;;;;1.15;0.75;;;23.30;41.30;;;;;;4921397;28;45171;-66
2022/03/02 11:12:29;;;;;;;0.65;0.65;;;23.30;41.20;;;;;;4923931;28;46359;-66
2022/03/02 11:15:04;;;;;;;0.77;0.70;;;23.40;41.20;;;;;;4935478;28;45392;-67
2022/03/02 11:17:30;;;;;;;1.05;0.80;;;23.40;41.00;;;;;;4936103;28;45706;-67
2022/03/02 11:19:57;;;;;;;0.60;0.60;;;23.40;41.10;;;;;;4931208;28;45900;-67
2022/03/02 11:22:23;;;;;;;0.80;0.70;;;23.50;41.00;;;;;;4924616;28;45650;-67
2022/03/02 11:24:55;;;;;;;0.60;0.60;;;23.50;41.00;;;;;;4902354;28;45424;-66
2022/03/02 11:27:50;;;;;;;0.98;0.80;;;23.60;40.90;;;;;;4916246;28;46576;-67
2022/03/02 11:30:16;;;;;;;4.72;0.73;;;23.70;40.50;;;;;;4912617;28;45499;-67
2022/03/02 11:32:44;;;;;;;0.90;0.63;;;23.70;40.90;;;;;;4917317;28;45686;-66
2022/03/02 11:35:13;;;;;;;1.10;0.57;;;23.80;40.90;;;;;;4935597;28;45482;-66
2022/03/02 11:37:39;;;;;;;1.15;0.70;;;23.80;40.80;;;;;;4872470;28;47375;-67
2022/03/02 11:40:09;;;;;;;0.65;0.60;;;23.80;40.70;;;;;;4918162;28;45213;-66
2022/03/02 11:42:37;;;;;;;0.60;0.60;;;23.90;40.80;;;;;;4927674;28;45610;-67
2022/03/02 11:45:04;;;;;;;0.60;0.50;;;23.90;40.70;;;;;;4922950;28;45398;-67
2022/03/02 11:47:34;;;;;;;0.77;0.77;;;24.00;40.80;;;;;;4932737;28;46283;-66
2022/03/02 11:50:00;;;;;;;0.93;0.77;;;24.00;40.60;;;;;;4915111;28;45653;-67
2022/03/02 11:52:26;;;;;;;0.90;0.63;;;24.00;40.60;;;;;;4914180;28;45559;-66
2022/03/02 11:55:01;;;;;;;0.60;0.50;;;24.10;40.70;;;;;;4933335;28;45425;-67
2022/03/02 11:57:28;;;;;;;1.40;0.70;;;24.10;40.50;;;;;;4932435;28;45812;-64
2022/03/02 12:00:13;;;;;;;1.02;0.90;;;24.10;40.60;;;;;;4934197;28;45232;-64
2022/03/02 12:03:01;;;;;;;2.65;0.57;;;24.20;40.30;;;;;;4933054;28;45330;-65
2022/03/02 12:05:33;;;;;;;0.85;0.63;;;24.30;40.60;;;;;;4925128;28;45588;-64
2022/03/02 12:08:03;;;;;;;0.70;0.65;;;24.30;40.40;;;;;;4904892;28;46288;-64
2022/03/02 12:10:31;;;;;;;0.50;0.50;;;24.40;40.40;;;;;;4935877;28;45543;-64
2022/03/02 12:12:57;;;;;;;1.83;0.60;;;24.40;40.40;;;;;;4932544;28;45685;-63
2022/03/02 12:15:25;;;;;;;0.80;0.80;;;24.50;40.40;;;;;;4917583;28;45580;-65
2022/03/02 12:17:51;;;;;;;0.70;0.60;;;24.60;40.30;;;;;;4916825;28;45298;-65
2022/03/02 12:20:23;;;;;;;0.60;0.50;;;24.60;40.30;;;;;;4933783;28;45251;-66
2022/03/02 12:22:53;;;;;;;0.40;0.40;;;24.70;40.10;;;;;;4918570;28;45245;-65
2022/03/02 12:25:23;;;;;;;0.70;0.60;;;24.70;40.00;;;;;;4918745;28;44906;-65
2022/03/02 12:28:00;;;;;;;1.55;0.70;;;24.80;40.10;;;;;;4920005;28;47356;-65
2022/03/02 12:30:31;;;;;;;0.60;0.55;;;24.90;39.90;;;;;;4933712;28;45278;-65
2022/03/02 12:32:57;;;;;;;2.40;0.60;;;24.90;40.00;;;;;;4915630;28;45227;-66
2022/03/02 12:35:23;;;;;;;0.68;0.60;;;24.90;40.00;;;;;;4908067;28;45230;-64
2022/03/02 12:37:52;;;;;;;0.90;0.60;;;24.90;40.00;;;;;;4916490;28;44963;-65
2022/03/02 12:40:18;;;;;;;0.73;0.57;;;25.00;39.90;;;;;;4918318;28;45622;-66
2022/03/02 12:42:44;;;;;;;0.70;0.60;;;25.10;39.90;;;;;;4934826;28;45295;-65
2022/03/02 12:45:10;;;;;;;0.70;0.65;;;25.10;39.90;;;;;;4935884;28;45831;-65
2022/03/02 12:47:36;;;;;;;0.65;0.52;;;25.10;39.90;;;;;;4935766;28;45233;-66
2022/03/02 12:50:04;;;;;;;2.20;0.73;;;25.20;39.90;;;;;;4912313;28;45218;-65
2022/03/02 12:52:30;;;;;;;0.70;0.40;;;25.20;39.80;;;;;;4919301;28;45594;-64
2022/03/02 12:54:56;;;;;;;0.70;0.60;;;25.20;40.00;;;;;;4935731;28;46011;-65
2022/03/02 12:57:24;;;;;;;0.55;0.50;;;25.30;39.70;;;;;;4906952;28;47725;-65
2022/03/02 12:59:50;;;;;;;1.20;0.60;;;25.40;39.70;;;;;;4935425;28;44690;-62
2022/03/02 13:02:20;;;;;;;1.33;0.80;;;25.40;39.70;;;;;;4889864;28;45444;-66
2022/03/02 13:04:55;;;;;;;0.93;0.70;;;25.40;39.70;;;;;;4920631;28;45413;-64
2022/03/02 13:07:36;;;;;;;0.50;0.50;;;25.40;39.70;;;;;;4933145;28;45886;-66
2022/03/02 13:10:04;;;;;;;0.60;0.35;;;25.40;39.20;;;;;;4932256;28;44671;-66
2022/03/02 13:12:33;;;;;;;1.13;0.60;;;25.50;39.60;;;;;;4919771;28;45226;-65
2022/03/02 13:15:01;;;;;;;0.90;0.60;;;25.50;39.60;;;;;;4937305;28;45439;-65
2022/03/02 13:17:26;;;;;;;2.03;0.60;;;25.50;39.60;;;;;;4917033;28;46118;-63
2022/03/02 13:19:54;;;;;;;1.35;0.60;;;25.50;39.60;;;;;;4935671;28;45296;-65
2022/03/02 13:22:23;;;;;;;2.92;0.50;;;25.60;39.50;;;;;;4901671;28;46057;-64
2022/03/02 13:24:51;;;;;;;1.10;0.80;;;25.60;39.40;;;;;;4920947;28;45016;-65
2022/03/02 13:27:17;;;;;;;0.50;0.50;;;25.60;39.50;;;;;;4907407;28;45113;-65
2022/03/02 13:29:49;;;;;;;0.77;0.60;;;25.70;39.50;;;;;;4919065;28;45535;-64
2022/03/02 13:32:14;;;;;;;1.15;0.60;;;25.70;39.30;;;;;;4935478;28;45299;-65
2022/03/02 13:34:40;;;;;;;0.55;0.52;;;25.70;39.50;;;;;;4916029;28;45283;-65
2022/03/02 13:37:06;;;;;;;0.77;0.55;;;25.70;39.40;;;;;;4903450;28;45972;-64
2022/03/02 13:39:41;;;;;;;0.77;0.70;;;25.80;39.50;;;;;;4906276;28;44717;-65
2022/03/02 13:42:09;;;;;;;0.63;0.60;;;25.80;39.20;;;;;;4935809;28;45336;-64
2022/03/02 13:44:39;;;;;;;1.02;0.68;;;25.80;39.50;;;;;;4920979;28;45352;-63
2022/03/02 13:47:07;;;;;;;1.13;0.55;;;25.90;39.40;;;;;;4921683;28;46226;-65
2022/03/02 13:49:45;;;;;;;1.40;0.60;;;25.90;39.40;;;;;;4939489;28;44822;-65
2022/03/02 13:52:12;;;;;;;0.40;0.40;;;25.90;39.10;;;;;;4935602;28;45979;-64
2022/03/02 13:54:37;;;;;;;0.73;0.60;;;26.00;39.40;;;;;;4906242;28;45605;-64
2022/03/02 13:57:03;;;;;;;0.80;0.60;;;26.00;39.40;;;;;;4932708;28;44989;-66
2022/03/02 13:59:29;;;;;;;0.95;0.70;;;26.00;39.40;;;;;;4933447;28;45251;-64
2022/03/02 14:01:54;;;;;;;3.17;0.65;;;25.90;39.40;;;;;;4920528;28;45820;-62
2022/03/02 14:04:20;;;;;;;0.80;0.60;;;25.90;39.40;;;;;;4939286;28;45102;-64
2022/03/02 14:06:52;;;;;;;0.57;0.40;;;26.00;39.40;;;;;;4930436;28;46224;-64
2022/03/02 14:09:17;;;;;;;0.75;0.50;;;26.00;39.30;;;;;;4920179;28;45280;-64
2022/03/02 14:11:48;;;;;;;1.25;0.80;;;26.00;39.40;;;;;;4918795;28;45473;-65
2022/03/02 14:14:25;;;;;;;0.60;0.50;;;26.10;39.40;;;;;;4918644;28;46922;-65
2022/03/02 14:16:55;;;;;;;0.60;0.55;;;26.00;39.20;;;;;;4929861;28;45943;-61
2022/03/02 14:19:21;;;;;;;0.77;0.55;;;26.10;39.30;;;;;;4932733;28;45366;-64
2022/03/02 14:21:57;;;;;;;0.60;0.55;;;26.10;39.30;;;;;;4923690;28;45426;-63
2022/03/02 14:24:24;;;;;;;0.93;0.52;;;26.10;39.20;;;;;;4898136;28;45429;-64
2022/03/02 14:27:03;;;;;;;0.75;0.60;;;26.10;39.40;;;;;;4933785;28;45318;-64
2022/03/02 14:29:29;;;;;;;0.75;0.63;;;26.10;39.30;;;;;;4930335;28;45259;-65
2022/03/02 14:32:00;;;;;;;0.55;0.55;;;26.10;39.30;;;;;;4905543;28;45252;-64
2022/03/02 14:34:53;;;;;;;0.88;0.60;;;26.20;39.30;;;;;;4938792;28;44958;-64
2022/03/02 14:37:27;;;;;;;1.10;0.60;;;26.20;39.10;;;;;;4933814;28;46097;-64
2022/03/02 14:40:05;;;;;;;0.95;0.70;;;26.20;39.20;;;;;;4934241;28;45487;-63
2022/03/02 14:42:31;;;;;;;0.70;0.50;;;26.20;39.10;;;;;;4921867;28;44889;-63
2022/03/02 14:45:10;;;;;;;2.30;0.63;;;26.20;39.30;;;;;;4920480;28;45318;-63
2022/03/02 14:47:37;;;;;;;0.98;0.70;;;26.20;39.20;;;;;;4936159;28;46400;-64
2022/03/02 14:50:03;;;;;;;2.75;0.60;;;26.20;39.40;;;;;;4920118;28;45207;-64
2022/03/02 14:52:30;;;;;;;1.35;0.70;;;26.20;39.40;;;;;;4936114;28;44706;-64
2022/03/02 14:54:55;;;;;;;1.42;0.60;;;26.30;39.40;;;;;;4936611;28;44931;-65
2022/03/02 14:57:21;;;;;;;0.68;0.68;;;26.30;39.40;;;;;;4936408;28;46399;-65
2022/03/02 14:59:47;;;;;;;0.88;0.43;;;26.30;39.40;;;;;;4927044;28;45845;-63
2022/03/02 15:02:13;;;;;;;0.55;0.47;;;26.30;39.40;;;;;;4918465;28;45621;-64
2022/03/02 15:04:52;;;;;;;0.98;0.47;;;26.30;39.40;;;;;;4916180;28;45266;-63
2022/03/02 15:07:17;;;;;;;0.95;0.80;;;26.30;39.50;;;;;;4938036;28;46443;-63
2022/03/02 15:09:43;;;;;;;0.73;0.55;;;26.30;39.40;;;;;;4937961;28;44806;-64
2022/03/02 15:12:09;;;;;;;2.22;0.70;;;26.40;39.50;;;;;;4919752;28;45225;-64
2022/03/02 15:17:18;;;;;;;0.43;0.43;;;26.40;39.50;;;;;;4932213;28;46090;-66
2022/03/02 15:19:47;;;;;;;1.00;0.60;;;26.40;39.50;;;;;;4934990;28;45224;-63
2022/03/02 15:22:14;;;;;;;0.65;0.60;;;26.40;39.50;;;;;;4907769;28;45437;-66
2022/03/02 15:24:46;;;;;;;0.95;0.52;;;26.40;39.50;;;;;;4923641;28;45276;-66
2022/03/02 15:27:13;;;;;;;1.88;0.88;;;26.40;39.50;;;;;;4937646;28;47287;-66
2022/03/02 15:29:39;;;;;;;0.68;0.63;;;26.40;39.40;;;;;;4936430;28;46179;-64
2022/03/02 15:32:09;;;;;;;1.23;0.50;;;26.40;39.40;;;;;;4921716;28;44727;-65
2022/03/02 15:34:35;;;;;;;1.98;0.55;;;26.40;39.50;;;;;;4935877;28;44760;-64
2022/03/02 15:37:09;;;;;;;0.85;0.60;;;26.50;39.50;;;;;;4922701;28;46053;-62
2022/03/02 15:39:39;;;;;;;0.65;0.50;;;26.50;39.40;;;;;;4934843;28;44781;-65
2022/03/02 15:42:13;;;;;;;2.67;0.50;;;26.50;39.50;;;;;;4891266;28;45765;-65
2022/03/02 15:45:00;;;;;;;0.47;0.35;;;26.50;39.70;;;;;;4901280;28;44799;-66
2022/03/02 15:47:27;;;;;;;2.67;0.63;;;26.50;39.40;;;;;;4920944;28;45255;-63
2022/03/02 15:49:55;;;;;;;2.30;0.80;;;26.50;39.70;;;;;;4909248;28;45104;-64
2022/03/02 15:52:29;;;;;;;2.47;0.77;;;26.50;39.60;;;;;;4936660;28;45275;-65
2022/03/02 15:54:56;;;;;;;1.88;0.65;;;26.50;39.60;;;;;;4936390;28;45518;-67
2022/03/02 15:57:22;;;;;;;1.27;0.50;;;26.40;39.70;;;;;;4919914;28;45318;-68
2022/03/02 15:59:48;;;;;;;10.27;1.50;;;26.40;39.80;;;;;;4938187;28;45712;-64
2022/03/02 16:02:27;;;;;;;1.60;0.55;;;26.30;39.90;;;;;;4917316;28;45578;-64
2022/03/02 16:05:12;;;;;;;1.02;0.70;;;26.20;39.80;;;;;;4911994;28;45237;-64
2022/03/02 16:07:39;;;;;;;0.88;0.68;;;26.10;39.80;;;;;;4917773;28;45909;-64
2022/03/02 16:10:06;;;;;;;1.20;0.70;;;26.10;40.00;;;;;;4927437;28;44705;-65
2022/03/02 16:12:49;;;;;;;0.80;0.70;;;26.00;40.10;;;;;;4930200;28;45807;-65
2022/03/02 16:15:39;;;;;;;0.90;0.63;;;25.90;39.90;;;;;;4911089;28;45108;-64
2022/03/02 16:18:25;;;;;;;1.95;0.57;;;25.70;40.10;;;;;;4927362;28;44967;-64
2022/03/02 16:20:52;;;;;;;0.82;0.50;;;25.60;40.40;;;;;;4898122;28;45428;-64
2022/03/02 16:23:19;;;;;;;1.73;0.75;;;25.40;40.80;;;;;;4929836;28;44810;-64
2022/03/02 16:25:46;;;;;;;1.10;0.80;;;25.30;41.00;;;;;;4912219;28;45612;-64
2022/03/02 16:28:12;;;;;;;0.50;0.50;;;25.10;41.10;;;;;;4923059;28;47189;-65
2022/03/02 16:30:37;;;;;;;1.20;0.57;;;25.00;41.30;;;;;;4880262;28;45215;-64
2022/03/02 16:33:07;;;;;;;1.38;0.70;;;24.90;41.50;;;;;;4928425;28;45217;-64
2022/03/02 16:35:34;;;;;;;1.02;0.60;;;24.80;41.60;;;;;;4928564;28;44785;-65
2022/03/02 16:38:00;;;;;;;0.75;0.50;;;24.80;41.80;;;;;;4910245;28;45601;-64
2022/03/02 16:40:26;;;;;;;1.17;0.68;;;24.70;41.80;;;;;;4911150;28;45288;-65
2022/03/02 16:42:53;;;;;;;0.65;0.65;;;24.50;41.80;;;;;;4927893;28;44972;-65
2022/03/02 16:45:19;;;;;;;0.82;0.55;;;24.50;42.00;;;;;;4911875;28;45696;-64
2022/03/02 16:47:45;;;;;;;1.35;0.60;;;24.40;42.10;;;;;;4929663;28;46297;-65
2022/03/02 16:50:12;;;;;;;2.67;0.73;;;24.30;42.10;;;;;;4923335;28;45402;-64
2022/03/02 16:52:37;;;;;;;0.90;0.82;;;24.20;42.20;;;;;;4927305;28;45209;-64
2022/03/02 16:55:04;;;;;;;1.10;0.65;;;24.20;42.30;;;;;;4928294;28;45493;-64
2022/03/02 16:57:29;;;;;;;1.17;0.82;;;24.10;42.30;;;;;;4910840;28;46606;-64